Flight Track Log - Related Links

Times and Time Zones

All times are in EST time to prevent confusion due to time zone crossing. See the UCA597 flight status page for this flight to view local times or setup timezone preferences in your user account.

Time Position Orientation Groundspeed Altitude Reporting Facility
EST Latitude Longitude Course Direction KTS MPH feet Rate Location/Type
Thu 05:41:42 PM 39.0000 -77.4333 North 149 171 3,100  Level Potomac TRACON
Thu 05:42:42 PM 39.0333 -77.4333 360° North 165 190 4,500 1,600 Climbing Potomac TRACON
Thu 05:43:42 PM 39.0833 -77.4167 15° North 180 207 6,300 1,835 Climbing Potomac TRACON
Thu 05:44:43 PM 39.1333 -77.4000 14° North 198 228 8,200 1,636 Climbing Potomac TRACON
Thu 05:45:43 PM 39.1833 -77.3667 27° Northeast 218 251 9,600 1,263 Climbing Potomac TRACON
Thu 05:46:37 PM 39.2333 -77.3500 14° North 221 254 10,600 1,000 Climbing Potomac TRACON
Thu 05:47:00 PM 39.4053 -77.2611 North  Level Estimated
Thu 05:47:37 PM 39.3000 -77.3167 21° North 240 276 11,500  Level Potomac TRACON
Thu 05:48:37 PM 39.3500 -77.3333 346° North 208 239 13,000 1,339 Climbing Potomac TRACON
Thu 05:49:38 PM 39.4167 -77.3667 339° North 221 254 14,200 1,289 Climbing Potomac TRACON
Thu 05:50:38 PM 39.4833 -77.3833 349° North 215 247 15,600 900 Climbing Potomac TRACON
Thu 05:51:38 PM 39.5333 -77.4167 333° Northwest 226 260 16,000 164 Climbing Potomac TRACON
Thu 05:53:04 PM 39.6203 -77.4478 345° North 261 300 16,000 183 Level Washington Center
Thu 05:54:22 PM 39.7197 -77.4539 357° North 280 322 16,500 478 Climbing New York Center
Thu 05:55:22 PM 39.8097 -77.4492 North 288 331 17,100 950 Climbing New York Center
Thu 05:56:22 PM 39.8869 -77.4483 360° North 288 331 18,400 966 Climbing New York Center
Thu 05:57:20 PM 39.9597 -77.4147 19° North 274 315 19,000 305 Climbing New York Center
Thu 05:58:20 PM 40.0372 -77.3706 24° Northeast 296 341 19,000  Level New York Center
Thu 05:59:22 PM 40.1192 -77.3239 24° Northeast 311 358 19,000  Level New York Center
Thu 06:00:20 PM 40.2031 -77.2775 23° Northeast 316 364 19,000  Level New York Center
Thu 06:01:21 PM 40.2828 -77.2306 24° Northeast 316 364 19,000  Level New York Center
Thu 06:02:22 PM 40.3664 -77.1867 22° Northeast 316 364 19,000  Level New York Center
Thu 06:03:23 PM 40.4481 -77.1394 24° Northeast 316 364 19,000  Level New York Center
Thu 06:04:21 PM 40.5342 -77.0903 23° Northeast 323 372 19,000  Level New York Center
Thu 06:05:22 PM 40.6158 -77.0431 24° Northeast 318 366 19,000 -303 Level New York Center
Thu 06:06:20 PM 40.7019 -76.9933 24° Northeast 318 366 18,400 -706 Descending New York Center
Thu 06:07:21 PM 40.7836 -76.9486 23° Northeast 318 366 17,600 -689 Descending New York Center
Thu 06:08:22 PM 40.8631 -76.9008 24° Northeast 318 366 17,000 -298 Descending New York Center
Thu 06:09:22 PM 40.9425 -76.8558 23° Northeast 312 359 17,000  Level New York Center
Thu 06:10:20 PM 41.0197 -76.8106 24° Northeast 302 348 17,000  Level New York Center
Thu 06:11:20 PM 41.0972 -76.7650 24° Northeast 302 348 17,000  Level New York Center
Thu 06:12:21 PM 41.1744 -76.7222 23° Northeast 302 348 17,000  Level New York Center
Thu 06:13:21 PM 41.2386 -76.6867 23° Northeast 302 348 17,000  Level New York Center
Thu 06:14:20 PM 41.3333 -76.6258 26° Northeast 307 353 17,000  Level New York Center
Thu 06:15:21 PM 41.4103 -76.5828 23° Northeast 307 353 17,000  Level New York Center
Thu 06:16:21 PM 41.4878 -76.5339 25° Northeast 307 353 17,000 -744 Level New York Center
Thu 06:17:22 PM 41.5606 -76.4958 21° North 307 353 15,500 -1,537 Descending New York Center
Thu 06:18:22 PM 41.6378 -76.4469 25° Northeast 307 353 13,900 -1,780 Descending New York Center
Thu 06:19:20 PM 41.7175 -76.3900 28° Northeast 302 348 12,000 -1,831 Descending New York Center
Thu 06:20:20 PM 41.7889 -76.3319 31° Northeast 302 348 10,300 -1,636 Descending New York Center
Thu 06:21:21 PM 41.8561 -76.2761 32° Northeast 296 341 8,700 -1,623 Descending New York Center
Thu 06:22:22 PM 41.9103 -76.2306 32° Northeast 267 307 7,000 -1,664 Descending New York Center
Thu 06:23:20 PM 41.9686 -76.1825 31° Northeast 255 293 5,400 -1,513 Descending New York Center
Thu 06:24:21 PM 42.0294 -76.1314 32° Northeast 237 273 4,000 -689 Descending New York Center
Thu 06:25:22 PM 42.0572 -76.0667 60° Northeast 221 254 4,000 4,500 Level New York Center
Thu 06:26:21 PM 42.0853 -75.9964 62° Northeast 216 249 13,000 -202 Climbing New York Center
Thu 06:27:21 PM 42.1106 -75.9397 59° Northeast 195 224 3,600 -4,909 Descending New York Center
Thu 06:28:22 PM 42.1406 -75.9253 20° North 130 150 3,100 -555 Descending New York Center
Thu 06:29:20 PM 42.1625 -75.9436 328° Northwest 89 102 2,500 -508 Descending New York Center
Thu 06:30:20 PM 42.1867 -75.9622 330° Northwest 84 97 2,100 5,250 Descending New York Center
Thu 06:31:20 PM 42.2136 -75.9672 352° North 84 97 13,000 10,900 Climbing New York Center
Thu 06:33:00 PM 42.2084 -75.9796 240° Southwest  Level Estimated
Thu 06:40:00 PM 42.2084 -75.9796 North  Level Estimated
Thu 06:41:00 PM 42.2084 -75.9796 North  Level Estimated

Login

Don't have an account? Register now (free) for customized features, flight alerts, and more!